Hauptseite
METAR-TAF:

METAR-TAF

Flughäfen :

Flughafen Tabarka-Aïn Draham

Tabarka, Tunesien

Breite: 36-57N, Länge: 008-45E, Höhe: 20 m

Beobachtung

Neuester Wetterbericht von vor 32 Minuten, um 21:00 UTC
Wind 6 kt aus Ost/Nordost, variierte zwischen Nord/Nordost und Ost
Temperatur 15°C
Luftfeuchtigkeit 77%
Luftdruck 1007 hPa

METAR: DTKA 182100Z AUTO 06006KT 030V090 /// 15/11 Q1007

Zeit: 22:32 (21:32 UTC)

Prognose

Neuester Wetterbericht von vor 3 Stunden und 32 Minuten, um 18:00 UTC
Gültige Prognose vom 18 um 19 UTC bis 19 um 04 UTC
Wind 10 kt aus Ost
Sichtweite 10 km oder mehr
Aufgelockert bewölkt in der Höhe von 2000 ft

TAF: DTKA 181800Z 1819/1904 08010KT 9999 SCT020

Wetterbeobachtungen und Prognosen von mehr als 4000 Flughäfen (METAR und TAF Bericht).

Die verfügbaren Stationen werden durch gelbe und rote Markierungen auf der Karte dargestellt.

Führen Sie die Maus auf sie, um den Namen der Station zu sehen.

Darauf klicken, um die Beobachtung von Wetterbeobachtungen und Prognosen zu sehen.

Um die Karte zu ändern : klicken Sie auf den grünen Tasten mit einem schwarzen Kreuz Zum Vergrößern, auf den grünen Button mit einem Gedankenstrich zu verkleinern, oder auf die grünen Pfeile für benachbarte Karten.


METAR-TAF: